createdAt,value
2019-01-26T00:00:26.643Z,65.83
2019-01-26T00:02:57.227Z,71.83
2019-01-26T00:05:30.216Z,64.75
2019-01-26T00:08:00.734Z,61.77
2019-01-26T00:10:32.641Z,70.57
2019-01-26T00:13:03.176Z,76.17
2019-01-26T00:15:33.509Z,65.12
2019-01-26T00:18:04.744Z,72.55
2019-01-26T00:20:36.552Z,74.35
2019-01-26T00:23:07.331Z,65.63
2019-01-26T00:25:38.424Z,59.67
2019-01-26T00:28:08.624Z,71.00
2019-01-26T00:30:38.796Z,74.63
2019-01-26T00:33:10.457Z,69.07
2019-01-26T00:35:41.172Z,72.85
2019-01-26T00:38:12.847Z,66.65
2019-01-26T00:40:43.832Z,76.33
2019-01-26T00:43:14.272Z,69.70
2019-01-26T00:45:44.556Z,74.83
2019-01-26T00:48:14.747Z,66.00
2019-01-26T00:50:45.360Z,65.50
2019-01-26T00:53:15.470Z,67.43
2019-01-26T00:55:45.667Z,66.40
2019-01-26T00:58:16.577Z,69.90
2019-01-26T01:00:46.758Z,70.67
2019-01-26T01:03:17.291Z,65.97
2019-01-26T01:05:47.659Z,64.53
2019-01-26T01:08:18.329Z,65.40
2019-01-26T01:10:48.575Z,66.80
2019-01-26T01:13:18.820Z,68.33
2019-01-26T01:15:49.445Z,65.13
2019-01-26T01:18:19.949Z,62.53
2019-01-26T01:20:50.882Z,60.27
2019-01-26T01:23:21.335Z,66.15
2019-01-26T01:25:51.546Z,61.90
2019-01-26T01:28:21.721Z,61.93
2019-01-26T01:30:52.228Z,62.27
2019-01-26T01:33:22.603Z,61.23
2019-01-26T01:35:52.933Z,62.37
2019-01-26T01:38:35.840Z,60.00
2019-01-26T01:41:06.808Z,62.60
2019-01-26T01:43:37.368Z,63.40
2019-01-26T01:46:07.691Z,61.33
2019-01-26T01:48:38.225Z,61.37
2019-01-26T01:51:08.636Z,64.30
2019-01-26T01:53:39.227Z,59.20
2019-01-26T01:56:10.036Z,60.60
2019-01-26T01:58:40.493Z,55.73
2019-01-26T02:01:10.870Z,56.20
2019-01-26T02:03:41.745Z,65.10
2019-01-26T02:06:12.324Z,52.45
2019-01-26T02:08:42.608Z,58.83
2019-01-26T02:11:13.029Z,56.50
2019-01-26T02:13:43.803Z,62.23
2019-01-26T02:16:14.476Z,63.87
2019-01-26T02:18:44.496Z,64.33
2019-01-26T02:21:14.680Z,65.80
2019-01-26T02:23:44.980Z,57.10
2019-01-26T02:26:15.393Z,70.57
2019-01-26T02:28:45.690Z,69.43
2019-01-26T02:31:16.017Z,68.63
2019-01-26T02:33:46.197Z,64.87
2019-01-26T02:36:16.443Z,61.20
2019-01-26T02:38:46.509Z,64.87
2019-01-26T02:41:16.862Z,71.90
2019-01-26T02:43:47.229Z,68.20
2019-01-26T02:46:17.694Z,63.80
2019-01-26T02:48:48.693Z,65.97
2019-01-26T02:51:19.343Z,62.10
2019-01-26T02:53:49.720Z,72.03
2019-01-26T02:56:20.247Z,67.32
2019-01-26T02:58:50.394Z,66.53
2019-01-26T03:01:20.698Z,62.67
2019-01-26T03:03:51.229Z,67.40
2019-01-26T03:06:22.802Z,69.53
2019-01-26T03:08:53.363Z,67.05
2019-01-26T03:11:23.645Z,65.53
2019-01-26T03:13:53.852Z,63.83
2019-01-26T03:16:24.224Z,67.67
2019-01-26T03:18:54.536Z,65.43
2019-01-26T03:21:24.775Z,71.63
2019-01-26T03:23:55.553Z,61.35
2019-01-26T03:26:25.684Z,69.53
2019-01-26T03:28:56.133Z,72.90
2019-01-26T03:31:26.651Z,73.97
2019-01-26T03:33:57.205Z,70.67
2019-01-26T03:36:27.577Z,67.00
2019-01-26T03:38:57.851Z,66.67
2019-01-26T03:41:28.464Z,66.60
2019-01-26T03:43:58.711Z,76.63
2019-01-26T03:46:29.166Z,69.40
2019-01-26T03:48:59.390Z,73.90
2019-01-26T03:51:29.896Z,71.73
2019-01-26T03:54:01.039Z,65.83
2019-01-26T03:56:31.684Z,59.33
2019-01-26T03:59:02.135Z,64.56
2019-01-26T04:01:33.101Z,58.80
2019-01-26T04:04:03.556Z,65.13
2019-01-26T04:06:33.763Z,66.20
2019-01-26T04:09:06.030Z,58.83
2019-01-26T04:11:36.441Z,53.63
2019-01-26T04:14:06.964Z,62.93
2019-01-26T04:16:37.591Z,61.08
2019-01-26T04:19:07.853Z,55.93
2019-01-26T04:21:38.468Z,53.17
2019-01-26T04:24:08.917Z,53.07
2019-01-26T04:26:39.186Z,56.00
2019-01-26T04:29:11.356Z,51.93
2019-01-26T04:31:41.675Z,48.10
2019-01-26T04:34:12.285Z,51.45
2019-01-26T04:36:42.632Z,54.93
2019-01-26T04:39:13.913Z,55.67
2019-01-26T04:41:45.350Z,54.07
2019-01-26T04:44:15.362Z,54.53
2019-01-26T04:46:45.559Z,50.13
2019-01-26T04:49:15.685Z,47.93
2019-01-26T04:51:46.123Z,44.08
2019-01-26T04:54:16.539Z,45.63
2019-01-26T04:56:46.764Z,41.87
2019-01-26T04:59:17.367Z,43.58
2019-01-26T05:01:47.497Z,39.57
2019-01-26T05:04:17.611Z,40.87
2019-01-26T05:06:47.767Z,43.03
2019-01-26T05:09:18.436Z,44.23
2019-01-26T05:11:48.451Z,38.80
2019-01-26T05:14:19.707Z,39.23
2019-01-26T05:16:50.111Z,39.50
2019-01-26T05:19:20.225Z,41.23
2019-01-26T05:21:50.656Z,69.17
2019-01-26T05:24:21.296Z,49.63
2019-01-26T05:26:51.586Z,37.33
2019-01-26T05:29:21.841Z,38.63
2019-01-26T05:31:52.669Z,39.93
2019-01-26T05:34:22.848Z,44.70
2019-01-26T05:36:53.243Z,43.57
2019-01-26T05:39:23.708Z,39.03
2019-01-26T05:41:54.163Z,42.70
2019-01-26T05:44:24.572Z,36.00
2019-01-26T05:46:54.848Z,36.37
2019-01-26T05:49:25.840Z,38.75
2019-01-26T05:51:56.337Z,38.27
2019-01-26T05:54:26.385Z,35.50
2019-01-26T05:56:56.598Z,40.57
2019-01-26T05:59:26.795Z,40.90
2019-01-26T06:01:57.289Z,38.28
2019-01-26T06:04:27.345Z,34.40
2019-01-26T06:06:57.753Z,38.37
2019-01-26T06:09:28.236Z,36.17
2019-01-26T06:11:58.516Z,33.20
2019-01-26T06:14:28.819Z,35.33
2019-01-26T06:16:59.250Z,34.85
2019-01-26T06:19:29.542Z,37.80
2019-01-26T06:21:59.695Z,38.27
2019-01-26T06:24:30.034Z,34.78
2019-01-26T06:27:00.344Z,36.90
2019-01-26T06:29:30.930Z,33.97
2019-01-26T06:32:01.216Z,32.40
2019-01-26T06:34:31.553Z,35.83
2019-01-26T06:37:01.733Z,33.40
2019-01-26T06:39:32.205Z,33.67
2019-01-26T06:42:02.607Z,34.87
2019-01-26T06:44:32.851Z,35.80
2019-01-26T06:47:03.362Z,57.07
2019-01-26T06:49:33.477Z,39.23
2019-01-26T06:52:14.294Z,36.87
2019-01-26T06:54:45.369Z,34.00
2019-01-26T06:57:15.785Z,35.70
2019-01-26T06:59:46.248Z,34.03
2019-01-26T07:02:16.693Z,31.13
2019-01-26T07:04:55.669Z,35.78
2019-01-26T07:07:25.807Z,34.90
2019-01-26T07:09:56.490Z,37.73
2019-01-26T07:12:26.814Z,33.57
2019-01-26T07:14:57.279Z,36.03
2019-01-26T07:17:27.526Z,34.43
2019-01-26T07:19:58.751Z,33.63
2019-01-26T07:22:29.135Z,33.45
2019-01-26T07:24:59.541Z,37.73
2019-01-26T07:27:29.743Z,34.87
2019-01-26T07:30:00.197Z,37.00
2019-01-26T07:32:32.853Z,38.57
2019-01-26T07:35:03.430Z,40.17
2019-01-26T07:37:33.749Z,40.37
2019-01-26T07:40:04.730Z,38.50
2019-01-26T07:42:35.142Z,37.28
2019-01-26T07:45:05.506Z,39.20
2019-01-26T07:47:35.686Z,39.10
2019-01-26T07:50:07.869Z,37.80
2019-01-26T07:52:38.414Z,38.13
2019-01-26T07:55:09.345Z,41.17
2019-01-26T07:57:39.668Z,41.80
2019-01-26T08:00:13.290Z,39.97
2019-01-26T08:02:43.523Z,37.23
2019-01-26T08:05:14.267Z,41.20
2019-01-26T08:07:44.810Z,35.60
2019-01-26T08:10:17.864Z,38.47
2019-01-26T08:12:48.476Z,44.60
2019-01-26T08:15:33.199Z,38.50
2019-01-26T08:18:03.835Z,46.90
2019-01-26T08:20:34.646Z,42.43
2019-01-26T08:23:05.191Z,48.42
2019-01-26T08:25:36.413Z,42.80
2019-01-26T08:28:06.775Z,45.33
2019-01-26T08:30:37.671Z,42.63
2019-01-26T08:33:08.135Z,38.17
2019-01-26T08:35:38.663Z,44.00
2019-01-26T08:38:09.268Z,44.38
2019-01-26T08:40:39.449Z,41.00
2019-01-26T08:43:09.628Z,42.27
2019-01-26T08:45:40.038Z,43.28
2019-01-26T08:48:10.430Z,42.10
2019-01-26T08:50:40.738Z,45.93
2019-01-26T08:53:11.312Z,44.53
2019-01-26T08:55:41.454Z,41.13
2019-01-26T08:58:11.615Z,39.40
2019-01-26T09:00:41.910Z,45.33
2019-01-26T09:03:28.385Z,40.17
2019-01-26T09:06:11.080Z,43.50
2019-01-26T09:08:41.681Z,40.73
2019-01-26T09:11:12.032Z,44.90
2019-01-26T09:13:42.443Z,39.37
2019-01-26T09:16:12.778Z,39.47
2019-01-26T09:18:44.426Z,37.23
2019-01-26T09:21:14.731Z,37.93
2019-01-26T09:23:45.260Z,43.80
2019-01-26T09:26:15.924Z,42.83
2019-01-26T09:28:46.678Z,38.20
2019-01-26T09:31:20.098Z,43.42
2019-01-26T09:33:50.447Z,38.87
2019-01-26T09:36:20.627Z,44.23
2019-01-26T09:38:50.861Z,42.20
2019-01-26T09:41:21.371Z,43.05
2019-01-26T09:43:51.615Z,37.47
2019-01-26T09:46:21.855Z,40.60
2019-01-26T09:48:52.437Z,47.63
2019-01-26T09:51:22.659Z,45.70
2019-01-26T09:53:52.973Z,45.70
2019-01-26T09:56:23.528Z,52.25
2019-01-26T09:58:53.744Z,38.07
2019-01-26T10:01:24.287Z,42.58
2019-01-26T10:03:55.173Z,39.80
2019-01-26T10:06:26.804Z,56.53
2019-01-26T10:08:57.281Z,56.08
2019-01-26T10:11:27.643Z,60.17
2019-01-26T10:13:57.878Z,44.83
2019-01-26T10:16:28.491Z,39.98
2019-01-26T10:18:58.538Z,72.60
2019-01-26T10:21:28.674Z,49.40
2019-01-26T10:24:00.307Z,44.13
2019-01-26T10:26:30.638Z,47.87
2019-01-26T10:29:00.892Z,41.00
2019-01-26T10:31:31.359Z,41.08
2019-01-26T10:34:01.618Z,50.17
2019-01-26T10:36:46.599Z,49.97
2019-01-26T10:39:18.650Z,44.67
2019-01-26T10:42:08.778Z,46.50
2019-01-26T10:44:39.678Z,43.80
2019-01-26T10:47:10.149Z,46.05
2019-01-26T10:49:40.298Z,42.43
2019-01-26T10:52:10.527Z,40.83
2019-01-26T10:54:41.105Z,41.10
2019-01-26T10:57:11.677Z,38.40
2019-01-26T10:59:42.230Z,37.05
2019-01-26T11:02:14.034Z,38.00
2019-01-26T11:04:44.259Z,40.87
2019-01-26T11:07:15.829Z,39.87
2019-01-26T11:09:46.412Z,41.40
2019-01-26T11:12:16.550Z,54.00
2019-01-26T11:14:46.801Z,44.77
2019-01-26T11:17:17.180Z,38.80
2019-01-26T11:19:47.685Z,43.80
2019-01-26T11:22:18.993Z,47.45
2019-01-26T11:24:49.375Z,42.23
2019-01-26T11:27:19.675Z,40.87
2019-01-26T11:29:49.841Z,45.90
2019-01-26T11:32:20.460Z,42.55
2019-01-26T11:34:51.050Z,46.67
2019-01-26T11:37:21.558Z,44.45
2019-01-26T11:39:58.415Z,37.90
2019-01-26T11:42:28.563Z,42.77
2019-01-26T11:45:20.869Z,37.03
2019-01-26T11:47:51.303Z,42.60
2019-01-26T11:50:29.055Z,62.20
2019-01-26T11:52:59.408Z,54.10
2019-01-26T11:55:51.007Z,240.60
2019-01-26T11:58:21.341Z,108.03
2019-01-26T12:01:19.837Z,341.03
2019-01-26T12:03:58.835Z,198.05
2019-01-26T12:06:35.146Z,91.57
2019-01-26T12:09:08.291Z,194.03
2019-01-26T12:11:39.026Z,163.83
2019-01-26T12:14:09.547Z,145.60
2019-01-26T12:16:39.807Z,139.37
2019-01-26T12:19:11.600Z,78.67
2019-01-26T12:21:41.835Z,61.80
2019-01-26T12:24:12.505Z,51.83
2019-01-26T12:26:42.648Z,57.50
2019-01-26T12:29:12.859Z,92.63
2019-01-26T12:31:43.341Z,155.90
2019-01-26T12:34:13.678Z,188.50
2019-01-26T12:36:44.303Z,192.47
2019-01-26T12:39:14.656Z,147.73
2019-01-26T12:41:56.015Z,276.37
2019-01-26T12:44:26.389Z,192.75
2019-01-26T12:46:58.123Z,141.28
2019-01-26T12:49:29.654Z,141.20
2019-01-26T12:52:00.421Z,196.90
2019-01-26T12:54:30.642Z,351.90
2019-01-26T12:57:00.664Z,300.20
2019-01-26T12:59:30.965Z,175.53
2019-01-26T13:02:01.499Z,199.85
2019-01-26T13:04:31.730Z,309.67
2019-01-26T13:07:02.565Z,272.25
2019-01-26T13:09:32.794Z,257.93
2019-01-26T13:12:03.423Z,62.15
2019-01-26T13:14:33.670Z,111.87
2019-01-26T13:17:04.181Z,125.17
2019-01-26T13:19:37.015Z,50.88
2019-01-26T13:22:07.185Z,46.17
2019-01-26T13:24:37.547Z,57.87
2019-01-26T13:27:07.821Z,49.80
2019-01-26T13:29:38.437Z,44.93
2019-01-26T13:32:08.682Z,46.20
2019-01-26T13:34:38.931Z,45.03
2019-01-26T13:37:09.516Z,40.65
2019-01-26T13:39:39.583Z,41.47
2019-01-26T13:42:09.946Z,43.23
2019-01-26T13:44:40.265Z,46.13
2019-01-26T13:47:10.544Z,44.07
2019-01-26T13:49:44.142Z,46.23
2019-01-26T13:52:12.588Z,48.40
2019-01-26T13:54:42.731Z,125.73
2019-01-26T13:57:13.244Z,235.57
2019-01-26T13:59:43.662Z,212.67
2019-01-26T14:02:13.995Z,245.40
2019-01-26T14:04:44.119Z,72.90
2019-01-26T14:07:14.269Z,73.80
2019-01-26T14:09:44.323Z,64.83
2019-01-26T14:12:15.853Z,65.80
2019-01-26T14:14:52.574Z,53.30
2019-01-26T14:17:22.828Z,52.70
2019-01-26T14:19:53.329Z,49.70
2019-01-26T14:22:23.785Z,47.80
2019-01-26T14:24:54.383Z,187.40
2019-01-26T14:27:24.689Z,192.23
2019-01-26T14:29:55.300Z,77.17
2019-01-26T14:32:25.750Z,82.00
2019-01-26T14:34:56.207Z,57.10
2019-01-26T14:37:26.793Z,47.77
2019-01-26T14:39:57.219Z,43.47
2019-01-26T14:42:27.530Z,42.53
2019-01-26T14:44:57.583Z,46.47
2019-01-26T14:47:27.577Z,45.87
2019-01-26T14:49:58.527Z,42.90
2019-01-26T14:52:29.190Z,46.75
2019-01-26T14:54:59.630Z,46.97
2019-01-26T14:57:30.299Z,49.77
2019-01-26T15:00:00.448Z,47.53
2019-01-26T15:02:30.657Z,47.13
2019-01-26T15:05:00.751Z,59.27
2019-01-26T15:07:31.059Z,47.27
2019-01-26T15:10:01.266Z,48.60
2019-01-26T15:12:31.644Z,58.90
2019-01-26T15:15:01.903Z,51.17
2019-01-26T15:17:33.615Z,46.73
2019-01-26T15:20:06.020Z,50.67
2019-01-26T15:22:36.580Z,46.60
2019-01-26T15:25:07.702Z,49.43
2019-01-26T15:27:38.183Z,96.63
2019-01-26T15:30:14.247Z,81.53
2019-01-26T15:32:44.549Z,78.77
2019-01-26T15:35:16.280Z,57.50
2019-01-26T15:37:50.352Z,96.27
2019-01-26T15:40:20.634Z,126.73
2019-01-26T15:42:51.274Z,131.15
2019-01-26T15:45:27.172Z,114.67
2019-01-26T15:47:57.496Z,103.20
2019-01-26T15:50:27.747Z,128.50
2019-01-26T15:52:58.066Z,137.92
2019-01-26T15:55:28.734Z,513.00
2019-01-26T15:57:59.204Z,157.60
2019-01-26T16:00:32.173Z,124.00
2019-01-26T16:03:02.734Z,133.43
2019-01-26T16:05:33.340Z,87.70
2019-01-26T16:08:03.615Z,62.33
2019-01-26T16:10:33.873Z,68.10
2019-01-26T16:13:04.331Z,73.67
2019-01-26T16:15:34.769Z,56.13
2019-01-26T16:18:06.445Z,49.77
2019-01-26T16:20:36.679Z,54.33
2019-01-26T16:23:09.648Z,75.95
2019-01-26T16:25:40.577Z,54.20
2019-01-26T16:28:10.746Z,51.80
2019-01-26T16:30:41.329Z,47.67
2019-01-26T16:33:11.655Z,49.70
2019-01-26T16:35:42.367Z,55.08
2019-01-26T16:38:12.920Z,59.60
2019-01-26T16:40:43.522Z,62.13
2019-01-26T16:43:24.089Z,232.60
2019-01-26T16:45:54.354Z,360.40
2019-01-26T16:48:24.726Z,189.07
2019-01-26T16:50:55.426Z,123.83
2019-01-26T16:53:27.482Z,94.50
2019-01-26T16:55:57.612Z,140.73
2019-01-26T16:58:27.880Z,100.50
2019-01-26T17:01:17.166Z,148.60
2019-01-26T17:03:47.492Z,131.23
2019-01-26T17:06:18.054Z,69.77
2019-01-26T17:08:48.549Z,99.15
2019-01-26T17:11:19.345Z,82.77
2019-01-26T17:13:49.460Z,116.03
2019-01-26T17:16:20.124Z,86.53
2019-01-26T17:18:50.293Z,63.03
2019-01-26T17:21:24.098Z,55.83
2019-01-26T17:23:55.649Z,68.00
2019-01-26T17:26:26.186Z,52.62
2019-01-26T17:28:56.388Z,47.23
2019-01-26T17:31:26.660Z,47.00
2019-01-26T17:33:56.836Z,52.43
2019-01-26T17:36:28.373Z,48.15
2019-01-26T17:38:58.467Z,43.80
2019-01-26T17:41:28.563Z,49.47
2019-01-26T17:43:58.709Z,51.37
2019-01-26T17:46:29.016Z,50.40
2019-01-26T17:48:59.333Z,52.97
2019-01-26T17:51:29.674Z,50.00
2019-01-26T17:54:00.281Z,54.90
2019-01-26T17:56:30.506Z,47.13
2019-01-26T17:59:00.702Z,56.80
2019-01-26T18:01:30.838Z,57.15
2019-01-26T18:04:01.387Z,55.83
2019-01-26T18:06:31.518Z,53.80
2019-01-26T18:09:01.995Z,59.60
2019-01-26T18:11:32.177Z,66.13
2019-01-26T18:14:02.412Z,321.00
2019-01-26T18:16:32.617Z,252.63
2019-01-26T18:19:02.855Z,389.43
2019-01-26T18:21:33.346Z,158.57
2019-01-26T18:24:05.926Z,102.37
2019-01-26T18:26:36.209Z,82.20
2019-01-26T18:29:06.459Z,124.73
2019-01-26T18:31:36.778Z,119.30
2019-01-26T18:34:07.543Z,132.35
2019-01-26T18:36:40.195Z,138.60
2019-01-26T18:39:11.380Z,93.67
2019-01-26T18:41:42.569Z,102.13
2019-01-26T18:44:12.720Z,88.80
2019-01-26T18:46:44.517Z,76.85
2019-01-26T18:49:14.666Z,72.47
2019-01-26T18:51:46.545Z,72.58
2019-01-26T18:54:22.929Z,64.57
2019-01-26T18:56:53.385Z,73.03
2019-01-26T18:59:24.355Z,63.50
2019-01-26T19:01:54.616Z,65.60
2019-01-26T19:04:33.055Z,197.72
2019-01-26T19:07:03.190Z,104.90
2019-01-26T19:09:33.722Z,66.50
2019-01-26T19:12:04.413Z,55.03
2019-01-26T19:14:35.541Z,55.45
2019-01-26T19:17:05.929Z,59.33
2019-01-26T19:19:36.382Z,66.47
2019-01-26T19:22:06.742Z,66.50
2019-01-26T19:24:37.224Z,64.15
2019-01-26T19:27:07.999Z,62.23
2019-01-26T19:29:38.338Z,62.43
2019-01-26T19:32:08.770Z,61.43
2019-01-26T19:34:39.356Z,58.60
2019-01-26T19:37:11.433Z,55.63
2019-01-26T19:39:41.834Z,54.47
2019-01-26T19:42:12.306Z,51.33
2019-01-26T19:44:44.525Z,56.30
2019-01-26T19:47:15.207Z,56.53
2019-01-26T19:49:45.619Z,60.90
2019-01-26T19:52:16.199Z,56.20
2019-01-26T19:54:46.363Z,53.63
2019-01-26T19:57:19.401Z,58.33
2019-01-26T19:59:51.280Z,61.90
2019-01-26T20:02:21.494Z,58.60
2019-01-26T20:04:51.602Z,53.50
2019-01-26T20:07:22.278Z,62.97
2019-01-26T20:09:52.517Z,76.57
2019-01-26T20:12:23.022Z,75.50
2019-01-26T20:14:53.973Z,56.33
2019-01-26T20:17:24.541Z,54.97
2019-01-26T20:19:54.904Z,56.50
2019-01-26T20:22:25.623Z,53.05
2019-01-26T20:24:58.696Z,58.67
2019-01-26T20:27:29.409Z,65.78
2019-01-26T20:29:59.900Z,50.37
2019-01-26T20:32:30.850Z,47.73
2019-01-26T20:35:01.931Z,49.67
2019-01-26T20:37:32.600Z,51.87
2019-01-26T20:40:02.932Z,50.13
2019-01-26T20:42:33.543Z,45.95
2019-01-26T20:45:05.762Z,48.93
2019-01-26T20:47:36.378Z,51.58
2019-01-26T20:50:08.179Z,47.47
2019-01-26T20:52:38.374Z,45.37
2019-01-26T20:55:09.023Z,49.83
2019-01-26T20:57:39.588Z,53.67
2019-01-26T21:00:14.148Z,53.53
2019-01-26T21:02:44.811Z,56.43
2019-01-26T21:05:15.948Z,58.35
2019-01-26T21:07:46.545Z,52.10
2019-01-26T21:10:22.053Z,43.50
2019-01-26T21:12:52.500Z,44.90
2019-01-26T21:15:23.086Z,46.70
2019-01-26T21:17:53.513Z,45.47
2019-01-26T21:20:24.659Z,43.33
2019-01-26T21:22:55.039Z,39.63
2019-01-26T21:25:25.348Z,45.13
2019-01-26T21:27:55.761Z,43.87
2019-01-26T21:30:28.268Z,45.98
2019-01-26T21:32:59.059Z,44.03
2019-01-26T21:35:29.531Z,42.40
2019-01-26T21:37:59.792Z,39.50
2019-01-26T21:40:32.094Z,44.83
2019-01-26T21:43:03.234Z,43.47
2019-01-26T21:45:33.822Z,41.23
2019-01-26T21:48:04.419Z,51.88
2019-01-26T21:50:34.931Z,60.00
2019-01-26T21:53:06.832Z,90.30
2019-01-26T21:55:37.230Z,74.23
2019-01-26T21:58:07.434Z,61.57
2019-01-26T22:00:48.234Z,58.40
2019-01-26T22:03:18.444Z,59.90
2019-01-26T22:05:48.675Z,54.30
2019-01-26T22:08:18.971Z,59.50
2019-01-26T22:10:49.517Z,56.98
2019-01-26T22:13:19.704Z,60.50
2019-01-26T22:15:50.214Z,61.90
2019-01-26T22:18:20.551Z,63.00
2019-01-26T22:20:50.663Z,61.33
2019-01-26T22:23:21.103Z,56.02
2019-01-26T22:25:51.756Z,62.47
2019-01-26T22:28:22.186Z,61.58
2019-01-26T22:30:52.423Z,76.83
2019-01-26T22:33:22.741Z,80.33
2019-01-26T22:35:53.387Z,74.72
2019-01-26T22:38:23.493Z,90.80
2019-01-26T22:40:53.751Z,82.17
2019-01-26T22:43:24.228Z,82.62
2019-01-26T22:45:54.659Z,69.80
2019-01-26T22:48:25.021Z,62.43
2019-01-26T22:50:55.455Z,69.60
2019-01-26T22:53:25.601Z,60.70
2019-01-26T22:55:55.873Z,59.57
2019-01-26T22:58:26.216Z,46.77
2019-01-26T23:01:03.413Z,42.80
2019-01-26T23:03:39.575Z,42.57
2019-01-26T23:06:52.779Z,43.87
2019-01-26T23:09:48.839Z,45.30
2019-01-26T23:12:54.045Z,42.27
2019-01-26T23:15:59.911Z,46.10
2019-01-26T23:19:11.246Z,47.15
2019-01-26T23:22:34.148Z,45.00
2019-01-26T23:25:50.837Z,45.90
2019-01-26T23:28:39.054Z,45.00
2019-01-26T23:31:21.483Z,46.33
2019-01-26T23:33:53.287Z,47.67
2019-01-26T23:36:24.113Z,52.43
2019-01-26T23:38:54.602Z,46.77
2019-01-26T23:41:24.869Z,43.57
2019-01-26T23:43:55.654Z,44.07
2019-01-26T23:46:26.085Z,46.83
2019-01-26T23:48:56.204Z,43.77
2019-01-26T23:51:26.741Z,42.97
2019-01-26T23:53:57.175Z,46.67
2019-01-26T23:56:27.290Z,42.87
2019-01-26T23:58:57.556Z,41.63
